createdAt,value
2016-08-07T00:00:21.499Z,15.92
2016-08-07T00:01:21.528Z,15.89
2016-08-07T00:02:21.545Z,15.92
2016-08-07T00:03:21.580Z,15.86
2016-08-07T00:04:36.522Z,15.78
2016-08-07T00:05:21.619Z,15.8
2016-08-07T00:06:21.647Z,15.76
2016-08-07T00:07:21.679Z,15.74
2016-08-07T00:08:21.709Z,15.8
2016-08-07T00:09:21.730Z,15.76
2016-08-07T00:10:21.752Z,15.74
2016-08-07T00:11:21.774Z,15.72
2016-08-07T00:12:21.802Z,15.71
2016-08-07T00:13:21.827Z,15.74
2016-08-07T00:14:21.853Z,15.69
2016-08-07T00:15:21.874Z,15.78
2016-08-07T00:16:21.906Z,15.69
2016-08-07T00:17:36.856Z,15.71
2016-08-07T00:18:21.951Z,15.69
2016-08-07T00:19:21.987Z,15.72
2016-08-07T00:20:36.930Z,15.69
2016-08-07T00:21:22.028Z,15.72
2016-08-07T00:22:22.060Z,15.67
2016-08-07T00:23:22.078Z,15.68
2016-08-07T00:24:22.106Z,15.72
2016-08-07T00:25:22.830Z,15.71
2016-08-07T00:26:22.167Z,15.75
2016-08-07T00:27:22.186Z,15.75
2016-08-07T00:28:22.210Z,15.72
2016-08-07T00:29:22.235Z,15.71
2016-08-07T00:30:22.257Z,15.57
2016-08-07T00:31:22.305Z,15.64
2016-08-07T00:32:22.310Z,15.64
2016-08-07T00:33:37.259Z,15.59
2016-08-07T00:34:22.411Z,15.62
2016-08-07T00:35:22.391Z,15.57
2016-08-07T00:36:37.344Z,15.6
2016-08-07T00:37:22.451Z,15.59
2016-08-07T00:38:22.469Z,15.53
2016-08-07T00:39:22.490Z,15.53
2016-08-07T00:40:22.512Z,15.43
2016-08-07T00:41:22.537Z,15.46
2016-08-07T00:42:22.564Z,15.47
2016-08-07T00:43:22.595Z,15.5
2016-08-07T00:44:22.615Z,15.51
2016-08-07T00:45:22.635Z,15.49
2016-08-07T00:46:22.661Z,15.44
2016-08-07T00:47:22.688Z,15.46
2016-08-07T00:48:22.714Z,15.44
2016-08-07T00:49:22.740Z,15.44
2016-08-07T00:50:22.766Z,15.47
2016-08-07T00:51:22.825Z,15.41
2016-08-07T00:52:37.736Z,15.46
2016-08-07T00:53:22.837Z,15.39
2016-08-07T00:54:37.787Z,15.43
2016-08-07T00:55:22.927Z,15.43
2016-08-07T00:56:22.926Z,15.43
2016-08-07T00:57:22.941Z,15.39
2016-08-07T00:58:22.968Z,15.36
2016-08-07T00:59:23.003Z,15.28
2016-08-07T01:00:23.018Z,15.34
2016-08-07T01:01:23.042Z,15.32
2016-08-07T01:02:23.079Z,15.31
2016-08-07T01:03:23.086Z,15.29
2016-08-07T01:04:23.124Z,15.27
2016-08-07T01:05:23.144Z,15.29
2016-08-07T01:06:23.175Z,15.27
2016-08-07T01:07:23.242Z,15.32
2016-08-07T01:08:38.142Z,15.19
2016-08-07T01:09:38.163Z,15.2
2016-08-07T01:10:23.274Z,15.23
2016-08-07T01:11:23.319Z,15.17
2016-08-07T01:12:23.314Z,15.1
2016-08-07T01:13:23.353Z,15.11
2016-08-07T01:14:23.406Z,15.13
2016-08-07T01:15:23.494Z,15.06
2016-08-07T01:16:23.420Z,15.16
2016-08-07T01:17:23.449Z,15.1
2016-08-07T01:18:23.476Z,15.14
2016-08-07T01:19:23.493Z,15.07
2016-08-07T01:20:24.150Z,14.95
2016-08-07T01:21:23.542Z,14.99
2016-08-07T01:22:23.570Z,14.98
2016-08-07T01:23:38.520Z,14.99
2016-08-07T01:24:23.638Z,14.98
2016-08-07T01:25:38.570Z,15.06
2016-08-07T01:26:23.669Z,15.06
2016-08-07T01:27:24.302Z,14.92
2016-08-07T01:28:23.725Z,14.88
2016-08-07T01:29:23.831Z,14.92
2016-08-07T01:30:23.769Z,14.91
2016-08-07T01:31:23.824Z,14.89
2016-08-07T01:34:23.873Z,14.77
2016-08-07T01:35:23.947Z,14.78
2016-08-07T01:36:24.757Z,14.91
2016-08-07T01:37:23.955Z,14.81
2016-08-07T01:38:23.977Z,14.77
2016-08-07T01:39:24.005Z,14.83
2016-08-07T01:40:38.948Z,14.8
2016-08-07T01:41:24.057Z,14.8
2016-08-07T01:42:24.766Z,14.78
2016-08-07T01:43:25.009Z,14.75
2016-08-07T01:44:24.124Z,14.75
2016-08-07T01:45:24.147Z,14.81
2016-08-07T01:46:24.183Z,14.8
2016-08-07T01:47:24.206Z,14.78
2016-08-07T01:49:24.250Z,14.72
2016-08-07T01:50:24.282Z,14.69
2016-08-07T01:53:25.061Z,14.72
2016-08-07T01:54:24.399Z,14.69
2016-08-07T01:55:39.330Z,14.64
2016-08-07T01:56:24.427Z,14.7
2016-08-07T01:57:24.456Z,14.65
2016-08-07T01:58:24.474Z,14.68
2016-08-07T01:59:24.506Z,14.62
2016-08-07T02:00:24.617Z,14.72
2016-08-07T02:01:24.548Z,14.68
2016-08-07T02:02:24.581Z,14.58
2016-08-07T02:03:24.610Z,14.61
2016-08-07T02:04:24.627Z,14.55
2016-08-07T02:05:39.582Z,14.5
2016-08-07T02:07:39.629Z,14.42
2016-08-07T02:08:24.778Z,14.45
2016-08-07T02:09:24.756Z,14.45
2016-08-07T02:10:25.957Z,14.45
2016-08-07T02:11:39.727Z,14.46
2016-08-07T02:12:39.748Z,14.43
2016-08-07T02:13:25.001Z,14.43
2016-08-07T02:14:26.808Z,14.47
2016-08-07T02:15:24.902Z,14.37
2016-08-07T02:16:24.933Z,14.42
2016-08-07T02:17:24.957Z,14.45
2016-08-07T02:18:24.984Z,14.4
2016-08-07T02:19:25.004Z,14.46
2016-08-07T02:20:25.054Z,14.37
2016-08-07T02:22:25.086Z,14.35
2016-08-07T02:23:40.040Z,14.32
2016-08-07T02:24:25.323Z,14.22
2016-08-07T02:25:25.149Z,14.21
2016-08-07T02:26:25.178Z,14.14
2016-08-07T02:27:40.122Z,14.15
2016-08-07T02:28:25.233Z,14.14
2016-08-07T02:29:25.254Z,14.22
2016-08-07T02:30:25.410Z,14.27
2016-08-07T02:31:25.299Z,14.18
2016-08-07T02:32:25.380Z,14.21
2016-08-07T02:33:25.346Z,14.22
2016-08-07T02:34:25.375Z,14.43
2016-08-07T02:35:26.098Z,14.36
2016-08-07T02:37:25.450Z,14.47
2016-08-07T02:38:25.474Z,14.42
2016-08-07T02:39:25.500Z,14.43
2016-08-07T02:40:25.535Z,14.5
2016-08-07T02:41:25.551Z,14.42
2016-08-07T02:42:25.581Z,14.46
2016-08-07T02:43:40.532Z,14.47
2016-08-07T02:45:25.659Z,14.45
2016-08-07T02:46:25.672Z,14.46
2016-08-07T02:47:25.701Z,14.6
2016-08-07T02:48:25.736Z,14.54
2016-08-07T02:49:25.753Z,14.6
2016-08-07T02:50:40.707Z,14.52
2016-08-07T02:52:25.821Z,14.54
2016-08-07T02:53:25.850Z,14.68
2016-08-07T02:54:25.879Z,14.6
2016-08-07T02:57:25.959Z,14.61
2016-08-07T02:58:40.899Z,14.65
2016-08-07T02:59:25.998Z,14.65
2016-08-07T03:00:26.067Z,14.65
2016-08-07T03:02:26.079Z,14.6
2016-08-07T03:03:26.103Z,14.64
2016-08-07T03:04:26.120Z,14.57
2016-08-07T03:05:26.155Z,14.62
2016-08-07T03:07:26.195Z,14.55
2016-08-07T03:08:41.150Z,14.5
2016-08-07T03:09:26.246Z,14.47
2016-08-07T03:10:26.273Z,14.4
2016-08-07T03:11:26.301Z,14.39
2016-08-07T03:13:27.105Z,14.32
2016-08-07T03:14:26.376Z,14.35
2016-08-07T03:15:27.113Z,14.37
2016-08-07T03:16:26.423Z,14.39
2016-08-07T03:17:26.453Z,14.36
2016-08-07T03:18:26.481Z,14.36
2016-08-07T03:19:26.498Z,14.28
2016-08-07T03:20:26.522Z,14.21
2016-08-07T03:22:26.580Z,14.17
2016-08-07T03:23:26.598Z,14.24
2016-08-07T03:25:26.645Z,14.27
2016-08-07T03:26:26.677Z,14.2
2016-08-07T03:27:41.621Z,14.14
2016-08-07T03:28:26.736Z,14.27
2016-08-07T03:29:26.752Z,14.18
2016-08-07T03:30:41.694Z,14.2
2016-08-07T03:31:26.801Z,14.17
2016-08-07T03:32:26.839Z,14.12
2016-08-07T03:33:26.849Z,14.12
2016-08-07T03:34:26.878Z,14.1
2016-08-07T03:35:26.908Z,14.2
2016-08-07T03:36:42.380Z,14.17
2016-08-07T03:37:26.944Z,14.14
2016-08-07T03:38:26.982Z,14.14
2016-08-07T03:39:26.996Z,14.25
2016-08-07T03:40:27.486Z,14.28
2016-08-07T03:42:27.775Z,14.37
2016-08-07T03:43:27.142Z,14.43
2016-08-07T03:44:27.126Z,14.46
2016-08-07T03:45:27.144Z,14.52
2016-08-07T03:46:42.090Z,14.51
2016-08-07T03:48:27.218Z,14.6
2016-08-07T03:49:27.240Z,14.6
2016-08-07T03:50:27.271Z,14.61
2016-08-07T03:51:27.292Z,14.57
2016-08-07T03:52:27.341Z,14.54
2016-08-07T03:53:27.345Z,14.58
2016-08-07T03:54:27.383Z,14.54
2016-08-07T03:55:27.397Z,14.6
2016-08-07T03:56:27.416Z,14.55
2016-08-07T03:57:27.450Z,14.6
2016-08-07T03:58:27.463Z,14.69
2016-08-07T03:59:27.489Z,14.58
2016-08-07T04:00:27.543Z,14.58
2016-08-07T04:02:42.486Z,14.55
2016-08-07T04:03:27.600Z,14.58
2016-08-07T04:04:27.614Z,14.57
2016-08-07T04:05:27.645Z,14.58
2016-08-07T04:06:27.662Z,14.54
2016-08-07T04:07:27.690Z,14.51
2016-08-07T04:08:27.714Z,14.62
2016-08-07T04:09:27.744Z,14.6
2016-08-07T04:10:27.772Z,14.64
2016-08-07T04:11:27.785Z,14.65
2016-08-07T04:12:27.817Z,14.69
2016-08-07T04:13:27.839Z,14.77
2016-08-07T04:15:27.889Z,14.75
2016-08-07T04:16:27.925Z,14.75
2016-08-07T04:18:42.889Z,14.89
2016-08-07T04:19:27.992Z,14.89
2016-08-07T04:21:28.055Z,14.95
2016-08-07T04:22:28.071Z,14.91
2016-08-07T04:23:28.093Z,15.07
2016-08-07T04:24:28.119Z,15.21
2016-08-07T04:25:28.146Z,15.16
2016-08-07T04:26:28.167Z,15.31
2016-08-07T04:27:43.121Z,15.5
2016-08-07T04:28:28.214Z,15.46
2016-08-07T04:29:28.233Z,15.62
2016-08-07T04:31:28.287Z,15.57
2016-08-07T04:32:28.320Z,15.65
2016-08-07T04:33:43.270Z,15.54
2016-08-07T04:34:29.081Z,15.6
2016-08-07T04:35:28.393Z,15.56
2016-08-07T04:36:28.417Z,15.62
2016-08-07T04:37:28.448Z,15.68
2016-08-07T04:38:28.466Z,15.57
2016-08-07T04:39:30.186Z,15.69
2016-08-07T04:40:28.518Z,15.67
2016-08-07T04:41:28.537Z,15.72
2016-08-07T04:42:28.569Z,15.78
2016-08-07T04:43:28.594Z,15.89
2016-08-07T04:45:28.648Z,15.93
2016-08-07T04:46:28.667Z,15.94
2016-08-07T04:47:29.394Z,16
2016-08-07T04:48:28.779Z,16.01
2016-08-07T04:49:28.751Z,16.09
2016-08-07T04:50:29.469Z,16.14
2016-08-07T04:51:28.795Z,16.21
2016-08-07T04:52:28.820Z,16.3
2016-08-07T04:53:28.852Z,16.35
2016-08-07T04:54:28.892Z,16.43
2016-08-07T04:55:28.895Z,16.49
2016-08-07T04:56:28.929Z,16.61
2016-08-07T04:57:28.948Z,16.66
2016-08-07T04:58:28.971Z,16.94
2016-08-07T04:59:29.003Z,17.31
2016-08-07T05:00:29.037Z,17.7
2016-08-07T05:01:29.055Z,17.97
2016-08-07T05:02:44.005Z,18.9
2016-08-07T05:03:29.109Z,18.91
2016-08-07T05:04:29.122Z,18.69
2016-08-07T05:05:44.091Z,18.98
2016-08-07T05:06:29.185Z,18.78
2016-08-07T05:07:44.132Z,18.48
2016-08-07T05:08:29.240Z,18.75
2016-08-07T05:09:29.270Z,18.65
2016-08-07T05:10:29.291Z,18.78
2016-08-07T05:11:29.310Z,19.46
2016-08-07T05:12:29.340Z,20.28
2016-08-07T05:13:29.367Z,21.28
2016-08-07T05:14:29.395Z,22.14
2016-08-07T05:15:29.435Z,22.6
2016-08-07T05:18:29.512Z,21.62
2016-08-07T05:20:29.577Z,21.04
2016-08-07T05:21:44.520Z,20.66
2016-08-07T05:22:29.622Z,20.35
2016-08-07T05:23:29.668Z,20.11
2016-08-07T05:24:29.677Z,20.03
2016-08-07T05:25:29.710Z,19.84
2016-08-07T05:26:29.735Z,19.66
2016-08-07T05:27:29.838Z,19.47
2016-08-07T05:28:29.792Z,19.54
2016-08-07T05:29:29.824Z,20.16
2016-08-07T05:31:29.880Z,20.5
2016-08-07T05:32:29.906Z,20.82
2016-08-07T05:33:44.857Z,21.35
2016-08-07T05:34:29.962Z,22.22
2016-08-07T05:35:29.992Z,22.82
2016-08-07T05:36:30.021Z,23.02
2016-08-07T05:37:44.969Z,23.66
2016-08-07T05:38:30.077Z,24.28
2016-08-07T05:39:45.026Z,24.83
2016-08-07T05:40:30.134Z,25.18
2016-08-07T05:41:30.169Z,25.47
2016-08-07T05:42:30.188Z,26.05
2016-08-07T05:43:30.224Z,26.52
2016-08-07T05:44:30.259Z,26.23
2016-08-07T05:45:30.290Z,25.69
2016-08-07T05:47:30.362Z,25.55
2016-08-07T05:48:30.385Z,25.79
2016-08-07T05:49:30.412Z,26.32
2016-08-07T05:50:45.377Z,26.66
2016-08-07T05:51:30.488Z,26.94
2016-08-07T05:52:30.516Z,27.22
2016-08-07T05:53:45.478Z,27.1
2016-08-07T05:54:30.577Z,27.44
2016-08-07T05:55:30.627Z,27.21
2016-08-07T05:56:30.645Z,27.27
2016-08-07T05:57:30.685Z,27.32
2016-08-07T05:58:30.721Z,27.25
2016-08-07T05:59:32.309Z,27.63
2016-08-07T06:00:30.829Z,27.72
2016-08-07T06:01:30.815Z,28.34
2016-08-07T06:02:30.855Z,28.33
2016-08-07T06:03:30.889Z,28.56
2016-08-07T06:05:31.341Z,29.36
2016-08-07T06:06:30.993Z,29.52
2016-08-07T06:07:31.024Z,29.16
2016-08-07T06:08:45.985Z,29.26
2016-08-07T06:09:31.125Z,29.36
2016-08-07T06:10:31.117Z,29.57
2016-08-07T06:11:31.160Z,29.55
2016-08-07T06:12:33.343Z,29.51
2016-08-07T06:13:31.823Z,29.86
2016-08-07T06:14:31.265Z,30.02
2016-08-07T06:15:31.302Z,30.08
2016-08-07T06:16:31.336Z,30.38
2016-08-07T06:17:31.368Z,30.31
2016-08-07T06:18:31.404Z,30.29
2016-08-07T06:19:31.434Z,29.95
2016-08-07T06:20:31.479Z,30.01
2016-08-07T06:21:31.517Z,30.08
2016-08-07T06:22:31.553Z,30.55
2016-08-07T06:23:31.586Z,30.73
2016-08-07T06:24:31.623Z,30.13
2016-08-07T06:25:31.652Z,30.11
2016-08-07T06:26:31.742Z,30.15
2016-08-07T06:28:31.756Z,30.31
2016-08-07T06:29:31.792Z,30.35
2016-08-07T06:30:31.828Z,30.6
2016-08-07T06:31:31.874Z,30.35
2016-08-07T06:32:31.905Z,30.46
2016-08-07T06:33:31.935Z,30.79
2016-08-07T06:34:31.984Z,30.94
2016-08-07T06:35:46.939Z,30.91
2016-08-07T06:36:32.046Z,30.77
2016-08-07T06:37:32.909Z,30.8
2016-08-07T06:38:32.123Z,31.06
2016-08-07T06:40:47.121Z,30.77
2016-08-07T06:41:32.226Z,30.88
2016-08-07T06:42:32.307Z,30.65
2016-08-07T06:43:47.430Z,30.75
2016-08-07T06:44:32.338Z,31.02
2016-08-07T06:45:32.364Z,31.06
2016-08-07T06:46:32.401Z,31.17
2016-08-07T06:47:32.449Z,31.06
2016-08-07T06:48:32.476Z,31.43
2016-08-07T06:49:32.520Z,31.39
2016-08-07T06:50:32.558Z,30.98
2016-08-07T06:51:32.582Z,30.27
2016-08-07T06:52:32.632Z,30.04
2016-08-07T06:53:32.659Z,30.13
2016-08-07T06:54:32.703Z,30.11
2016-08-07T06:55:32.783Z,30.69
2016-08-07T06:56:47.696Z,30.7
2016-08-07T06:57:32.810Z,31.07
2016-08-07T06:58:32.884Z,31.48
2016-08-07T06:59:32.892Z,31.44
2016-08-07T07:00:32.911Z,31.35
2016-08-07T07:01:32.963Z,31.44
2016-08-07T07:02:32.988Z,31.46
2016-08-07T07:03:33.017Z,31.2
2016-08-07T07:04:33.062Z,30.97
2016-08-07T07:05:33.092Z,31.25
2016-08-07T07:06:33.135Z,31.34
2016-08-07T07:08:33.232Z,30.75
2016-08-07T07:09:33.277Z,30.84
2016-08-07T07:11:33.312Z,31.41
2016-08-07T07:12:48.279Z,31.63
2016-08-07T07:13:33.384Z,31.12
2016-08-07T07:14:33.425Z,31.25
2016-08-07T07:15:33.464Z,31.44
2016-08-07T07:16:33.515Z,31.86
2016-08-07T07:17:33.532Z,31.48
2016-08-07T07:18:33.571Z,31.06
2016-08-07T07:19:33.608Z,31.29
2016-08-07T07:20:33.642Z,31.04
2016-08-07T07:21:33.681Z,31.02
2016-08-07T07:23:33.750Z,30.8
2016-08-07T07:24:33.848Z,30.75
2016-08-07T07:25:34.086Z,30.34
2016-08-07T07:26:33.860Z,29.82
2016-08-07T07:27:33.898Z,28.96
2016-08-07T07:28:48.867Z,28.41
2016-08-07T07:29:33.973Z,28.67
2016-08-07T07:30:34.014Z,28.58
2016-08-07T07:31:34.071Z,28.12
2016-08-07T07:32:34.130Z,28.34
2016-08-07T07:33:34.115Z,29.08
2016-08-07T07:34:34.148Z,29.7
2016-08-07T07:35:34.182Z,29.15
2016-08-07T07:36:34.217Z,29.45
2016-08-07T07:38:34.294Z,28.31
2016-08-07T07:39:49.256Z,27.97
2016-08-07T07:40:34.362Z,28.15
2016-08-07T07:41:34.421Z,28.55
2016-08-07T07:42:34.431Z,28.7
2016-08-07T07:43:50.091Z,28.93
2016-08-07T07:44:34.507Z,28.85
2016-08-07T07:45:49.461Z,28.74
2016-08-07T07:46:34.574Z,28.36
2016-08-07T07:47:34.606Z,28.56
2016-08-07T08:02:29.568Z,28.21
2016-08-07T08:03:29.602Z,28.76
2016-08-07T08:04:29.635Z,29.3
2016-08-07T08:06:29.705Z,29.58
2016-08-07T08:07:29.738Z,30.08
2016-08-07T08:08:44.700Z,30.64
2016-08-07T08:10:44.821Z,30.53
2016-08-07T08:11:29.890Z,29.53
2016-08-07T08:12:44.840Z,29.74
2016-08-07T08:13:29.949Z,29.63
2016-08-07T08:15:30.019Z,28.25
2016-08-07T08:16:30.049Z,28.02
2016-08-07T08:17:30.090Z,28.46
2016-08-07T08:18:30.117Z,28.37
2016-08-07T08:19:30.168Z,28.56
2016-08-07T08:20:30.187Z,29.26
2016-08-07T08:21:30.224Z,29.63
2016-08-07T08:23:45.223Z,29.79
2016-08-07T08:24:30.333Z,30.11
2016-08-07T08:25:30.358Z,30.04
2016-08-07T08:26:30.406Z,29.58
2016-08-07T08:27:30.429Z,29.74
2016-08-07T08:28:45.395Z,29.57
2016-08-07T08:29:30.513Z,29.34
2016-08-07T08:30:30.544Z,28.78
2016-08-07T08:31:30.576Z,28.22
2016-08-07T08:32:30.606Z,28
2016-08-07T08:33:30.636Z,28.09
2016-08-07T08:34:30.678Z,27.97
2016-08-07T08:35:30.707Z,27.55
2016-08-07T08:36:30.741Z,27.44
2016-08-07T08:37:30.776Z,26.63
2016-08-07T08:38:30.810Z,26.88
2016-08-07T08:39:31.545Z,27.51
2016-08-07T08:40:30.881Z,27.75
2016-08-07T08:41:30.913Z,28.19
2016-08-07T08:42:30.951Z,28.81
2016-08-07T08:43:45.913Z,29.34
2016-08-07T08:44:31.035Z,29.43
2016-08-07T08:45:31.051Z,29.49
2016-08-07T08:47:31.124Z,29.36
2016-08-07T08:48:31.158Z,29.51
2016-08-07T08:50:31.228Z,30.17
2016-08-07T08:51:31.259Z,30.47
2016-08-07T08:52:31.286Z,31.14
2016-08-07T08:53:31.328Z,31.25
2016-08-07T08:54:31.525Z,31.48
2016-08-07T08:55:31.401Z,31.93
2016-08-07T08:56:31.426Z,31.93
2016-08-07T08:57:31.465Z,32.11
2016-08-07T08:58:31.512Z,31.88
2016-08-07T08:59:31.585Z,31.5
2016-08-07T09:00:31.574Z,32.41
2016-08-07T09:01:31.608Z,31.91
2016-08-07T09:02:31.640Z,31.43
2016-08-07T09:03:31.676Z,30.91
2016-08-07T09:04:31.702Z,30.35
2016-08-07T09:05:31.756Z,29.46
2016-08-07T09:06:31.771Z,28.86
2016-08-07T09:07:31.814Z,28.33
2016-08-07T09:08:31.849Z,28.21
2016-08-07T09:09:31.881Z,28.44
2016-08-07T09:10:31.914Z,28.12
2016-08-07T09:11:31.959Z,27.78
2016-08-07T09:12:31.975Z,27.39
2016-08-07T09:13:46.994Z,27.87
2016-08-07T09:14:32.050Z,27.97
2016-08-07T09:15:47.013Z,28.78
2016-08-07T09:16:32.125Z,29
2016-08-07T09:17:32.152Z,29.19
2016-08-07T09:18:32.190Z,29.08
2016-08-07T09:19:32.225Z,29.12
2016-08-07T09:20:32.279Z,29.04
2016-08-07T09:21:32.288Z,28.83
2016-08-07T09:22:32.318Z,29.36
2016-08-07T09:23:32.358Z,29.33
2016-08-07T09:24:32.393Z,28.44
2016-08-07T09:25:47.355Z,28.77
2016-08-07T09:26:32.467Z,29.09
2016-08-07T09:27:32.492Z,28.78
2016-08-07T09:28:33.226Z,28.83
2016-08-07T09:30:47.522Z,29.83
2016-08-07T09:31:47.558Z,29.85
2016-08-07T09:32:32.666Z,29.68
2016-08-07T09:33:32.690Z,28.7
2016-08-07T09:34:32.741Z,28.25
2016-08-07T09:35:32.762Z,27.7
2016-08-07T09:36:32.799Z,27.67
2016-08-07T09:37:33.529Z,28.02
2016-08-07T09:39:32.905Z,28.59
2016-08-07T09:40:32.927Z,28.49
2016-08-07T09:41:32.964Z,28.03
2016-08-07T09:42:32.997Z,27.4
2016-08-07T09:43:33.041Z,26.75
2016-08-07T09:44:33.065Z,27
2016-08-07T09:45:33.093Z,27.62
2016-08-07T09:46:33.131Z,28.21
2016-08-07T09:47:48.094Z,29.23
2016-08-07T09:48:33.208Z,29.06
2016-08-07T09:49:33.233Z,27.78
2016-08-07T09:50:33.272Z,26.99
2016-08-07T09:51:33.296Z,26.07
2016-08-07T09:52:33.329Z,25.79
2016-08-07T09:53:48.301Z,25.58
2016-08-07T09:54:33.396Z,25.61
2016-08-07T09:55:33.430Z,25.45
2016-08-07T09:56:33.469Z,25.27
2016-08-07T09:57:33.504Z,25.32
2016-08-07T09:59:33.558Z,25.05
2016-08-07T10:00:48.524Z,25.02
2016-08-07T10:01:33.626Z,25.14
2016-08-07T10:02:33.659Z,25.06
2016-08-07T10:03:48.617Z,24.99
2016-08-07T10:04:33.731Z,25.21
2016-08-07T10:05:33.759Z,25.21
2016-08-07T10:06:33.839Z,25.25
2016-08-07T10:07:33.827Z,25.57
2016-08-07T10:08:33.858Z,25.76
2016-08-07T10:09:33.889Z,26.17
2016-08-07T10:10:33.921Z,26.97
2016-08-07T10:11:33.948Z,27.17
2016-08-07T10:12:33.991Z,26.6
2016-08-07T10:13:34.016Z,26.3
2016-08-07T10:14:34.096Z,25.39
2016-08-07T10:15:34.074Z,25.08
2016-08-07T10:17:34.140Z,26.32
2016-08-07T10:18:49.101Z,26.17
2016-08-07T10:19:34.216Z,26.28
2016-08-07T10:20:49.165Z,26.23
2016-08-07T10:21:34.274Z,26.07
2016-08-07T10:22:34.313Z,25.73
2016-08-07T10:23:34.339Z,25.58
2016-08-07T10:24:34.371Z,25.76
2016-08-07T10:25:34.404Z,26.09
2016-08-07T10:26:34.437Z,26.15
2016-08-07T10:27:34.469Z,26.05
2016-08-07T10:28:34.504Z,25.92
2016-08-07T10:29:34.551Z,26.44
2016-08-07T10:30:49.492Z,26.65
2016-08-07T10:31:35.298Z,26.55
2016-08-07T10:32:34.628Z,26.37
2016-08-07T10:33:34.652Z,26.02
2016-08-07T10:35:34.726Z,25.79
2016-08-07T10:36:34.747Z,26.01
2016-08-07T10:37:34.799Z,26.02
2016-08-07T10:39:34.846Z,26.05
2016-08-07T10:40:49.816Z,25.55
2016-08-07T10:41:34.937Z,25.57
2016-08-07T10:42:34.953Z,25.45
2016-08-07T10:43:34.971Z,25.24
2016-08-07T10:44:49.939Z,25.25
2016-08-07T10:45:35.036Z,25.05
2016-08-07T10:46:35.077Z,25.15
2016-08-07T10:47:35.107Z,25.28
2016-08-07T10:48:50.062Z,25.38
2016-08-07T10:49:35.866Z,25.52
2016-08-07T10:50:50.127Z,25.2
2016-08-07T10:51:50.152Z,25.5
2016-08-07T10:52:50.184Z,25.62
2016-08-07T10:54:35.319Z,25.7
2016-08-07T10:55:35.358Z,25.94
2016-08-07T10:56:35.388Z,26.3
2016-08-07T10:57:35.410Z,26.6
2016-08-07T10:58:35.449Z,26.72
2016-08-07T10:59:35.478Z,26.65
2016-08-07T11:00:35.509Z,26.7
2016-08-07T11:01:35.543Z,26.58
2016-08-07T11:02:35.582Z,26.47
2016-08-07T11:03:35.606Z,26.57
2016-08-07T11:04:50.565Z,26.66
2016-08-07T11:05:35.664Z,26.51
2016-08-07T11:07:50.657Z,26.28
2016-08-07T11:09:35.843Z,26.29
2016-08-07T11:10:35.828Z,26.15
2016-08-07T11:11:35.857Z,26.2
2016-08-07T11:12:35.895Z,26.47
2016-08-07T11:13:35.920Z,26.62
2016-08-07T11:14:35.952Z,26.57
2016-08-07T11:15:35.985Z,26.75
2016-08-07T11:16:36.016Z,26.7
2016-08-07T11:17:36.052Z,26.32
2016-08-07T11:18:36.080Z,26.32
2016-08-07T11:19:51.037Z,26.43
2016-08-07T11:20:51.071Z,26.47
2016-08-07T11:21:36.179Z,26.32
2016-08-07T11:22:51.131Z,25.98
2016-08-07T11:24:51.189Z,26.02
2016-08-07T11:25:36.302Z,25.99
2016-08-07T11:26:36.338Z,26.21
2016-08-07T11:27:36.366Z,26.02
2016-08-07T11:28:36.400Z,26.2
2016-08-07T11:29:36.429Z,26.18
2016-08-07T11:30:36.455Z,25.83
2016-08-07T11:31:36.492Z,26.01
2016-08-07T11:33:51.481Z,26.62
2016-08-07T11:34:36.575Z,26.81
2016-08-07T11:35:36.612Z,26.84
2016-08-07T11:36:36.672Z,27
2016-08-07T11:37:36.675Z,26.94
2016-08-07T11:38:51.630Z,27.4
2016-08-07T11:39:36.741Z,27.47
2016-08-07T11:40:36.771Z,27.55
2016-08-07T11:41:36.800Z,27.4
2016-08-07T11:42:36.855Z,27.41
2016-08-07T11:43:36.873Z,27.44
2016-08-07T11:44:36.903Z,27.06
2016-08-07T11:45:36.931Z,27.36
2016-08-07T11:46:36.960Z,27.39
2016-08-07T11:47:37.005Z,27.55
2016-08-07T11:48:37.026Z,27.63
2016-08-07T11:49:37.054Z,27.74
2016-08-07T11:50:37.079Z,27.75
2016-08-07T11:51:37.110Z,27.85
2016-08-07T11:52:37.151Z,27.79
2016-08-07T11:54:37.214Z,27.74
2016-08-07T11:55:37.240Z,27.67
2016-08-07T11:56:37.278Z,27.4
2016-08-07T11:57:37.310Z,26.91
2016-08-07T11:58:37.341Z,26.81
2016-08-07T11:59:37.415Z,26.69
2016-08-07T12:00:37.403Z,26.69
2016-08-07T12:01:37.427Z,26.69
2016-08-07T12:02:37.465Z,26.51
2016-08-07T12:03:37.497Z,26.44
2016-08-07T12:04:37.533Z,26.55
2016-08-07T12:05:37.556Z,26.58
2016-08-07T12:07:37.622Z,26.77
2016-08-07T12:08:37.660Z,26.8
2016-08-07T12:09:37.684Z,26.91
2016-08-07T12:10:37.714Z,26.92
2016-08-07T12:11:37.750Z,26.94
2016-08-07T12:12:37.877Z,26.73
2016-08-07T12:13:37.807Z,26.67
2016-08-07T12:14:37.832Z,26.44
2016-08-07T12:15:37.874Z,25.99
2016-08-07T12:16:37.898Z,25.72
2016-08-07T12:17:37.931Z,25.94
2016-08-07T12:18:37.963Z,25.9
2016-08-07T12:19:37.992Z,25.72
2016-08-07T12:20:38.020Z,26.02
2016-08-07T12:21:38.057Z,25.8
2016-08-07T12:22:38.783Z,25.75
2016-08-07T12:23:38.117Z,25.72
2016-08-07T12:24:38.844Z,25.45
2016-08-07T12:25:53.104Z,25.6
2016-08-07T12:26:38.211Z,25.69
2016-08-07T12:27:38.246Z,25.73
2016-08-07T12:28:38.279Z,25.88
2016-08-07T12:29:53.240Z,25.9
2016-08-07T12:30:38.337Z,26.01
2016-08-07T12:31:38.364Z,26.01
2016-08-07T12:32:38.398Z,25.99
2016-08-07T12:33:38.425Z,25.99
2016-08-07T12:34:38.459Z,26.2
2016-08-07T12:35:38.485Z,26.2
2016-08-07T12:36:38.521Z,26.2
2016-08-07T12:37:38.546Z,26.02
2016-08-07T12:38:38.590Z,26.05
2016-08-07T12:40:38.645Z,26.21
2016-08-07T12:41:53.598Z,25.99
2016-08-07T12:42:38.708Z,26.1
2016-08-07T12:43:38.733Z,26.13
2016-08-07T12:44:38.762Z,26.44
2016-08-07T12:45:38.792Z,26.32
2016-08-07T12:46:38.828Z,26.44
2016-08-07T12:47:38.859Z,26.51
2016-08-07T12:48:38.891Z,26.58
2016-08-07T12:49:38.916Z,26.63
2016-08-07T12:50:38.954Z,26.88
2016-08-07T12:51:38.982Z,26.97
2016-08-07T12:52:39.008Z,26.89
2016-08-07T12:53:39.047Z,26.91
2016-08-07T12:54:39.095Z,26.95
2016-08-07T12:56:39.134Z,27.24
2016-08-07T12:57:54.086Z,27.41
2016-08-07T12:59:39.218Z,27.12
2016-08-07T13:00:39.258Z,27.07
2016-08-07T13:01:39.288Z,27.34
2016-08-07T13:02:39.326Z,27.74
2016-08-07T13:03:39.348Z,27.69
2016-08-07T13:04:39.389Z,27.81
2016-08-07T13:05:39.455Z,27.82
2016-08-07T13:06:39.444Z,27.87
2016-08-07T13:07:39.477Z,27.88
2016-08-07T13:08:39.506Z,27.77
2016-08-07T13:09:54.462Z,27.74
2016-08-07T13:10:39.561Z,27.74
2016-08-07T13:11:39.589Z,27.75
2016-08-07T13:12:39.620Z,27.65
2016-08-07T13:13:54.634Z,27.63
2016-08-07T13:14:39.688Z,27.69
2016-08-07T13:15:40.414Z,27.69
2016-08-07T13:16:39.748Z,27.57
2016-08-07T13:17:39.780Z,27.41
2016-08-07T13:19:39.840Z,27.24
2016-08-07T13:20:39.875Z,27.21
2016-08-07T13:21:39.910Z,27.17
2016-08-07T13:22:39.938Z,26.97
2016-08-07T13:23:39.976Z,26.89
2016-08-07T13:24:40.696Z,26.63
2016-08-07T13:26:54.990Z,26.4
2016-08-07T13:28:55.053Z,26.57
2016-08-07T13:29:40.152Z,26.45
2016-08-07T13:30:40.203Z,26.47
2016-08-07T13:31:40.218Z,26.51
2016-08-07T13:32:40.253Z,26.37
2016-08-07T13:33:40.299Z,26.55
2016-08-07T13:34:40.315Z,26.37
2016-08-07T13:35:40.340Z,26.44
2016-08-07T13:37:40.402Z,26.43
2016-08-07T13:38:40.435Z,26.54
2016-08-07T13:39:40.465Z,26.62
2016-08-07T13:40:40.513Z,26.67
2016-08-07T13:41:40.528Z,26.77
2016-08-07T13:42:40.559Z,26.36
2016-08-07T13:43:40.594Z,26.21
2016-08-07T13:44:40.623Z,26.18
2016-08-07T13:45:55.575Z,26.18
2016-08-07T13:46:40.694Z,26.2
2016-08-07T13:47:40.712Z,25.92
2016-08-07T13:48:40.743Z,25.83
2016-08-07T13:49:40.773Z,25.85
2016-08-07T13:50:40.799Z,25.69
2016-08-07T13:51:40.836Z,25.57
2016-08-07T13:52:40.871Z,25.64
2016-08-07T13:53:40.892Z,25.46
2016-08-07T13:54:40.928Z,25.51
2016-08-07T13:55:40.955Z,25.6
2016-08-07T13:56:40.985Z,25.55
2016-08-07T13:57:41.030Z,25.67
2016-08-07T13:58:41.044Z,25.75
2016-08-07T13:59:41.078Z,25.91
2016-08-07T14:00:56.036Z,25.87
2016-08-07T14:01:41.137Z,25.92
2016-08-07T14:02:41.167Z,25.9
2016-08-07T14:03:41.197Z,25.99
2016-08-07T14:04:41.231Z,26.01
2016-08-07T14:05:42.747Z,26.05
2016-08-07T14:06:41.287Z,25.95
2016-08-07T14:07:41.328Z,25.85
2016-08-07T14:08:41.343Z,25.77
2016-08-07T14:09:41.377Z,25.75
2016-08-07T14:10:41.414Z,25.69
2016-08-07T14:11:41.443Z,25.69
2016-08-07T14:12:41.475Z,25.73